sensor_id;sensor_type;location;lat;lon;timestamp;P1;durP1;ratioP1;P2;durP2;ratioP2
37407;SDS011;24866;50.248;8.252;2023-06-19T00:01:05;11.88;;;10.05;;
37407;SDS011;24866;50.248;8.252;2023-06-19T00:03:35;13.10;;;10.02;;
37407;SDS011;24866;50.248;8.252;2023-06-19T00:06:05;11.90;;;10.70;;
37407;SDS011;24866;50.248;8.252;2023-06-19T00:08:36;12.43;;;10.68;;
37407;SDS011;24866;50.248;8.252;2023-06-19T00:11:07;12.45;;;10.18;;
37407;SDS011;24866;50.248;8.252;2023-06-19T00:13:37;12.02;;;10.82;;
37407;SDS011;24866;50.248;8.252;2023-06-19T00:16:07;10.43;;;9.15;;
37407;SDS011;24866;50.248;8.252;2023-06-19T00:18:37;10.90;;;9.70;;
37407;SDS011;24866;50.248;8.252;2023-06-19T00:21:08;10.55;;;9.45;;
37407;SDS011;24866;50.248;8.252;2023-06-19T00:23:38;10.25;;;9.18;;
37407;SDS011;24866;50.248;8.252;2023-06-19T00:26:09;11.05;;;9.10;;
37407;SDS011;24866;50.248;8.252;2023-06-19T00:28:42;10.45;;;9.20;;
37407;SDS011;24866;50.248;8.252;2023-06-19T00:31:13;9.63;;;8.63;;
37407;SDS011;24866;50.248;8.252;2023-06-19T00:33:43;10.40;;;8.55;;
37407;SDS011;24866;50.248;8.252;2023-06-19T00:36:14;11.23;;;9.73;;
37407;SDS011;24866;50.248;8.252;2023-06-19T00:38:48;10.82;;;9.73;;
37407;SDS011;24866;50.248;8.252;2023-06-19T00:41:19;10.30;;;8.98;;
37407;SDS011;24866;50.248;8.252;2023-06-19T00:43:50;11.27;;;9.18;;
37407;SDS011;24866;50.248;8.252;2023-06-19T00:46:22;10.95;;;9.27;;
37407;SDS011;24866;50.248;8.252;2023-06-19T00:48:52;10.20;;;9.10;;
37407;SDS011;24866;50.248;8.252;2023-06-19T00:51:21;9.77;;;8.27;;
37407;SDS011;24866;50.248;8.252;2023-06-19T00:53:51;10.32;;;8.50;;
37407;SDS011;24866;50.248;8.252;2023-06-19T00:56:23;11.40;;;10.13;;
37407;SDS011;24866;50.248;8.252;2023-06-19T00:58:53;15.68;;;10.07;;
37407;SDS011;24866;50.248;8.252;2023-06-19T01:01:23;17.58;;;9.90;;
37407;SDS011;24866;50.248;8.252;2023-06-19T01:03:54;10.63;;;9.50;;
37407;SDS011;24866;50.248;8.252;2023-06-19T01:06:25;10.80;;;9.48;;
37407;SDS011;24866;50.248;8.252;2023-06-19T01:09:07;12.13;;;10.30;;
37407;SDS011;24866;50.248;8.252;2023-06-19T01:11:43;13.85;;;12.52;;
37407;SDS011;24866;50.248;8.252;2023-06-19T01:14:16;11.32;;;10.23;;
37407;SDS011;24866;50.248;8.252;2023-06-19T01:16:50;12.23;;;10.02;;
37407;SDS011;24866;50.248;8.252;2023-06-19T01:19:21;11.10;;;9.98;;
37407;SDS011;24866;50.248;8.252;2023-06-19T01:21:51;10.43;;;9.20;;
37407;SDS011;24866;50.248;8.252;2023-06-19T01:24:22;12.20;;;9.50;;
37407;SDS011;24866;50.248;8.252;2023-06-19T01:26:52;10.88;;;9.30;;
37407;SDS011;24866;50.248;8.252;2023-06-19T01:29:22;9.65;;;8.27;;
37407;SDS011;24866;50.248;8.252;2023-06-19T01:31:53;11.25;;;8.48;;
37407;SDS011;24866;50.248;8.252;2023-06-19T01:34:26;9.18;;;8.27;;
37407;SDS011;24866;50.248;8.252;2023-06-19T01:36:58;15.10;;;9.20;;
37407;SDS011;24866;50.248;8.252;2023-06-19T01:39:31;10.43;;;9.10;;
37407;SDS011;24866;50.248;8.252;2023-06-19T01:42:04;11.63;;;9.35;;
37407;SDS011;24866;50.248;8.252;2023-06-19T01:44:35;10.45;;;9.35;;
37407;SDS011;24866;50.248;8.252;2023-06-19T01:47:09;9.88;;;8.88;;
37407;SDS011;24866;50.248;8.252;2023-06-19T01:49:40;9.88;;;8.88;;
37407;SDS011;24866;50.248;8.252;2023-06-19T01:52:09;10.95;;;8.45;;
37407;SDS011;24866;50.248;8.252;2023-06-19T01:54:41;15.65;;;9.15;;
37407;SDS011;24866;50.248;8.252;2023-06-19T01:57:10;10.57;;;9.40;;
37407;SDS011;24866;50.248;8.252;2023-06-19T01:59:41;11.23;;;9.40;;
37407;SDS011;24866;50.248;8.252;2023-06-19T02:02:11;10.18;;;9.13;;
37407;SDS011;24866;50.248;8.252;2023-06-19T02:04:41;10.32;;;9.25;;
37407;SDS011;24866;50.248;8.252;2023-06-19T02:07:11;10.20;;;9.15;;
37407;SDS011;24866;50.248;8.252;2023-06-19T02:09:42;10.45;;;9.45;;
37407;SDS011;24866;50.248;8.252;2023-06-19T02:12:12;10.02;;;9.02;;
37407;SDS011;24866;50.248;8.252;2023-06-19T02:14:42;10.23;;;9.23;;
37407;SDS011;24866;50.248;8.252;2023-06-19T02:17:11;11.60;;;10.13;;
37407;SDS011;24866;50.248;8.252;2023-06-19T02:19:41;11.45;;;9.07;;
37407;SDS011;24866;50.248;8.252;2023-06-19T02:22:11;13.75;;;9.98;;
37407;SDS011;24866;50.248;8.252;2023-06-19T02:24:43;10.93;;;9.85;;
37407;SDS011;24866;50.248;8.252;2023-06-19T02:27:13;9.63;;;8.73;;
37407;SDS011;24866;50.248;8.252;2023-06-19T02:29:44;9.57;;;8.50;;
37407;SDS011;24866;50.248;8.252;2023-06-19T02:32:13;9.27;;;8.35;;
37407;SDS011;24866;50.248;8.252;2023-06-19T02:34:44;10.13;;;8.68;;
37407;SDS011;24866;50.248;8.252;2023-06-19T02:37:14;9.48;;;8.57;;
37407;SDS011;24866;50.248;8.252;2023-06-19T02:39:45;10.40;;;9.30;;
37407;SDS011;24866;50.248;8.252;2023-06-19T02:42:15;12.20;;;9.25;;
37407;SDS011;24866;50.248;8.252;2023-06-19T02:44:45;10.00;;;9.10;;
37407;SDS011;24866;50.248;8.252;2023-06-19T02:47:15;11.45;;;9.05;;
37407;SDS011;24866;50.248;8.252;2023-06-19T02:49:44;14.50;;;9.55;;
37407;SDS011;24866;50.248;8.252;2023-06-19T02:52:14;12.00;;;9.63;;
37407;SDS011;24866;50.248;8.252;2023-06-19T02:54:45;11.82;;;10.10;;
37407;SDS011;24866;50.248;8.252;2023-06-19T02:57:16;12.80;;;9.63;;
37407;SDS011;24866;50.248;8.252;2023-06-19T02:59:46;10.35;;;9.25;;
37407;SDS011;24866;50.248;8.252;2023-06-19T03:02:16;10.80;;;9.70;;
37407;SDS011;24866;50.248;8.252;2023-06-19T03:04:46;12.25;;;9.50;;
37407;SDS011;24866;50.248;8.252;2023-06-19T03:07:16;14.50;;;9.45;;
37407;SDS011;24866;50.248;8.252;2023-06-19T03:09:47;12.38;;;8.88;;
37407;SDS011;24866;50.248;8.252;2023-06-19T03:12:16;10.23;;;9.20;;
37407;SDS011;24866;50.248;8.252;2023-06-19T03:14:46;9.30;;;8.40;;
37407;SDS011;24866;50.248;8.252;2023-06-19T03:17:16;12.70;;;9.65;;
37407;SDS011;24866;50.248;8.252;2023-06-19T03:19:46;12.05;;;9.15;;
37407;SDS011;24866;50.248;8.252;2023-06-19T03:22:16;12.48;;;10.07;;
37407;SDS011;24866;50.248;8.252;2023-06-19T03:24:47;10.38;;;9.30;;
37407;SDS011;24866;50.248;8.252;2023-06-19T03:27:18;12.45;;;9.93;;
37407;SDS011;24866;50.248;8.252;2023-06-19T03:29:47;10.77;;;9.45;;
37407;SDS011;24866;50.248;8.252;2023-06-19T03:32:17;11.13;;;10.02;;
37407;SDS011;24866;50.248;8.252;2023-06-19T03:34:48;11.32;;;10.20;;
37407;SDS011;24866;50.248;8.252;2023-06-19T03:37:17;15.35;;;10.55;;
37407;SDS011;24866;50.248;8.252;2023-06-19T03:39:49;12.38;;;9.90;;
37407;SDS011;24866;50.248;8.252;2023-06-19T03:42:18;13.95;;;10.52;;
37407;SDS011;24866;50.248;8.252;2023-06-19T03:44:48;10.30;;;9.32;;
37407;SDS011;24866;50.248;8.252;2023-06-19T03:47:18;13.98;;;9.35;;
37407;SDS011;24866;50.248;8.252;2023-06-19T03:49:48;11.30;;;9.57;;
37407;SDS011;24866;50.248;8.252;2023-06-19T03:52:18;10.73;;;9.65;;
37407;SDS011;24866;50.248;8.252;2023-06-19T03:54:49;13.27;;;10.98;;
37407;SDS011;24866;50.248;8.252;2023-06-19T03:57:19;10.45;;;8.55;;
37407;SDS011;24866;50.248;8.252;2023-06-19T03:59:48;12.57;;;9.68;;
37407;SDS011;24866;50.248;8.252;2023-06-19T04:02:20;10.85;;;9.35;;
37407;SDS011;24866;50.248;8.252;2023-06-19T04:04:50;12.88;;;10.95;;
37407;SDS011;24866;50.248;8.252;2023-06-19T04:07:20;10.77;;;9.68;;
37407;SDS011;24866;50.248;8.252;2023-06-19T04:09:51;11.63;;;10.45;;
37407;SDS011;24866;50.248;8.252;2023-06-19T04:12:20;13.98;;;10.13;;
37407;SDS011;24866;50.248;8.252;2023-06-19T04:14:50;13.25;;;9.85;;
37407;SDS011;24866;50.248;8.252;2023-06-19T04:17:20;11.93;;;9.45;;
37407;SDS011;24866;50.248;8.252;2023-06-19T04:19:50;12.60;;;11.10;;
37407;SDS011;24866;50.248;8.252;2023-06-19T04:22:20;14.23;;;10.27;;
37407;SDS011;24866;50.248;8.252;2023-06-19T04:24:51;13.93;;;11.60;;
37407;SDS011;24866;50.248;8.252;2023-06-19T04:27:21;12.52;;;10.57;;
37407;SDS011;24866;50.248;8.252;2023-06-19T04:29:50;14.77;;;10.63;;
37407;SDS011;24866;50.248;8.252;2023-06-19T04:32:21;11.05;;;9.80;;
37407;SDS011;24866;50.248;8.252;2023-06-19T04:34:51;11.75;;;9.23;;
37407;SDS011;24866;50.248;8.252;2023-06-19T04:37:20;12.85;;;10.55;;
37407;SDS011;24866;50.248;8.252;2023-06-19T04:39:52;13.35;;;10.23;;
37407;SDS011;24866;50.248;8.252;2023-06-19T04:42:21;11.45;;;9.48;;
37407;SDS011;24866;50.248;8.252;2023-06-19T04:44:51;12.57;;;9.93;;
37407;SDS011;24866;50.248;8.252;2023-06-19T04:47:23;11.10;;;9.93;;
37407;SDS011;24866;50.248;8.252;2023-06-19T04:49:53;12.25;;;10.02;;
37407;SDS011;24866;50.248;8.252;2023-06-19T04:52:23;14.13;;;10.25;;
37407;SDS011;24866;50.248;8.252;2023-06-19T04:54:54;12.82;;;11.52;;
37407;SDS011;24866;50.248;8.252;2023-06-19T04:57:23;13.48;;;10.98;;
37407;SDS011;24866;50.248;8.252;2023-06-19T04:59:53;13.32;;;12.07;;
37407;SDS011;24866;50.248;8.252;2023-06-19T05:02:23;12.57;;;10.50;;
37407;SDS011;24866;50.248;8.252;2023-06-19T05:04:53;14.27;;;10.82;;
37407;SDS011;24866;50.248;8.252;2023-06-19T05:07:23;14.55;;;11.10;;
37407;SDS011;24866;50.248;8.252;2023-06-19T05:09:54;11.63;;;10.43;;
37407;SDS011;24866;50.248;8.252;2023-06-19T05:12:24;15.10;;;10.20;;
37407;SDS011;24866;50.248;8.252;2023-06-19T05:14:54;11.20;;;10.07;;
37407;SDS011;24866;50.248;8.252;2023-06-19T05:17:23;13.10;;;9.18;;
37407;SDS011;24866;50.248;8.252;2023-06-19T05:19:53;12.80;;;9.77;;
37407;SDS011;24866;50.248;8.252;2023-06-19T05:22:24;8.30;;;7.10;;
37407;SDS011;24866;50.248;8.252;2023-06-19T05:24:56;17.63;;;10.02;;
37407;SDS011;24866;50.248;8.252;2023-06-19T05:27:25;10.45;;;8.55;;
37407;SDS011;24866;50.248;8.252;2023-06-19T05:29:55;7.38;;;5.38;;
37407;SDS011;24866;50.248;8.252;2023-06-19T05:32:25;7.95;;;6.53;;
37407;SDS011;24866;50.248;8.252;2023-06-19T05:34:55;5.95;;;4.93;;
37407;SDS011;24866;50.248;8.252;2023-06-19T05:37:25;5.22;;;4.35;;
37407;SDS011;24866;50.248;8.252;2023-06-19T05:39:57;4.47;;;3.78;;
37407;SDS011;24866;50.248;8.252;2023-06-19T05:42:27;5.55;;;4.18;;
37407;SDS011;24866;50.248;8.252;2023-06-19T05:44:57;4.43;;;3.30;;
37407;SDS011;24866;50.248;8.252;2023-06-19T05:47:27;4.75;;;3.30;;
37407;SDS011;24866;50.248;8.252;2023-06-19T05:49:58;5.20;;;3.72;;
37407;SDS011;24866;50.248;8.252;2023-06-19T05:52:28;5.47;;;3.65;;
37407;SDS011;24866;50.248;8.252;2023-06-19T05:55:00;4.70;;;3.28;;
37407;SDS011;24866;50.248;8.252;2023-06-19T05:57:30;4.45;;;3.40;;
37407;SDS011;24866;50.248;8.252;2023-06-19T06:00:00;4.95;;;3.42;;
37407;SDS011;24866;50.248;8.252;2023-06-19T06:02:31;5.28;;;3.92;;
37407;SDS011;24866;50.248;8.252;2023-06-19T06:05:01;4.55;;;3.40;;
37407;SDS011;24866;50.248;8.252;2023-06-19T06:07:31;5.70;;;3.63;;
37407;SDS011;24866;50.248;8.252;2023-06-19T06:10:02;6.28;;;3.05;;
37407;SDS011;24866;50.248;8.252;2023-06-19T06:12:33;5.78;;;4.13;;
37407;SDS011;24866;50.248;8.252;2023-06-19T06:15:04;5.20;;;3.50;;
37407;SDS011;24866;50.248;8.252;2023-06-19T06:17:34;5.72;;;3.45;;
37407;SDS011;24866;50.248;8.252;2023-06-19T06:20:05;5.53;;;3.28;;
37407;SDS011;24866;50.248;8.252;2023-06-19T06:22:39;3.88;;;3.22;;
37407;SDS011;24866;50.248;8.252;2023-06-19T06:25:11;5.05;;;3.30;;
37407;SDS011;24866;50.248;8.252;2023-06-19T06:27:41;4.53;;;3.75;;
37407;SDS011;24866;50.248;8.252;2023-06-19T06:30:11;4.25;;;2.58;;
37407;SDS011;24866;50.248;8.252;2023-06-19T06:32:43;6.07;;;2.67;;
37407;SDS011;24866;50.248;8.252;2023-06-19T06:35:13;5.60;;;3.33;;
37407;SDS011;24866;50.248;8.252;2023-06-19T06:37:43;4.07;;;2.90;;
37407;SDS011;24866;50.248;8.252;2023-06-19T06:40:15;4.70;;;3.30;;
37407;SDS011;24866;50.248;8.252;2023-06-19T06:42:45;4.43;;;3.55;;
37407;SDS011;24866;50.248;8.252;2023-06-19T06:45:17;5.38;;;3.00;;
37407;SDS011;24866;50.248;8.252;2023-06-19T06:47:47;5.00;;;2.90;;
37407;SDS011;24866;50.248;8.252;2023-06-19T06:50:17;3.70;;;2.90;;
37407;SDS011;24866;50.248;8.252;2023-06-19T06:52:46;4.05;;;3.28;;
37407;SDS011;24866;50.248;8.252;2023-06-19T06:55:18;3.75;;;3.15;;
37407;SDS011;24866;50.248;8.252;2023-06-19T06:57:48;3.97;;;3.00;;
37407;SDS011;24866;50.248;8.252;2023-06-19T07:00:18;5.07;;;3.22;;
37407;SDS011;24866;50.248;8.252;2023-06-19T07:02:48;5.10;;;3.47;;
37407;SDS011;24866;50.248;8.252;2023-06-19T07:05:19;4.38;;;3.35;;
37407;SDS011;24866;50.248;8.252;2023-06-19T07:07:49;4.07;;;3.30;;
37407;SDS011;24866;50.248;8.252;2023-06-19T07:10:20;6.25;;;4.22;;
37407;SDS011;24866;50.248;8.252;2023-06-19T07:12:50;4.43;;;3.40;;
37407;SDS011;24866;50.248;8.252;2023-06-19T07:15:20;6.57;;;4.15;;
37407;SDS011;24866;50.248;8.252;2023-06-19T07:17:50;4.70;;;3.58;;
37407;SDS011;24866;50.248;8.252;2023-06-19T07:20:20;5.32;;;3.90;;
37407;SDS011;24866;50.248;8.252;2023-06-19T07:22:50;5.10;;;4.18;;
37407;SDS011;24866;50.248;8.252;2023-06-19T07:25:23;5.95;;;4.15;;
37407;SDS011;24866;50.248;8.252;2023-06-19T07:27:53;5.70;;;4.30;;
37407;SDS011;24866;50.248;8.252;2023-06-19T07:30:23;4.38;;;3.92;;
37407;SDS011;24866;50.248;8.252;2023-06-19T07:32:53;5.60;;;4.05;;
37407;SDS011;24866;50.248;8.252;2023-06-19T07:35:23;6.38;;;4.13;;
37407;SDS011;24866;50.248;8.252;2023-06-19T07:37:52;5.50;;;4.45;;
37407;SDS011;24866;50.248;8.252;2023-06-19T07:40:24;7.28;;;4.60;;
37407;SDS011;24866;50.248;8.252;2023-06-19T07:42:53;5.63;;;3.95;;
37407;SDS011;24866;50.248;8.252;2023-06-19T07:45:23;4.95;;;4.45;;
37407;SDS011;24866;50.248;8.252;2023-06-19T07:47:53;5.97;;;4.68;;
37407;SDS011;24866;50.248;8.252;2023-06-19T07:50:24;6.13;;;4.72;;
37407;SDS011;24866;50.248;8.252;2023-06-19T07:52:53;5.72;;;4.63;;
37407;SDS011;24866;50.248;8.252;2023-06-19T07:55:25;7.40;;;4.43;;
37407;SDS011;24866;50.248;8.252;2023-06-19T07:57:55;7.70;;;5.05;;
37407;SDS011;24866;50.248;8.252;2023-06-19T08:00:25;7.43;;;5.15;;
37407;SDS011;24866;50.248;8.252;2023-06-19T08:02:56;6.07;;;5.20;;
37407;SDS011;24866;50.248;8.252;2023-06-19T08:05:25;7.28;;;5.07;;
37407;SDS011;24866;50.248;8.252;2023-06-19T08:07:55;8.27;;;4.90;;
37407;SDS011;24866;50.248;8.252;2023-06-19T08:10:27;7.07;;;5.05;;
37407;SDS011;24866;50.248;8.252;2023-06-19T08:12:57;5.57;;;4.80;;
37407;SDS011;24866;50.248;8.252;2023-06-19T08:15:26;6.13;;;4.97;;
37407;SDS011;24866;50.248;8.252;2023-06-19T08:17:56;5.25;;;4.25;;
37407;SDS011;24866;50.248;8.252;2023-06-19T08:20:26;8.48;;;4.80;;
37407;SDS011;24866;50.248;8.252;2023-06-19T08:22:56;5.43;;;4.40;;
37407;SDS011;24866;50.248;8.252;2023-06-19T08:25:27;5.50;;;4.22;;
37407;SDS011;24866;50.248;8.252;2023-06-19T08:27:57;6.38;;;4.90;;
37407;SDS011;24866;50.248;8.252;2023-06-19T08:30:27;6.45;;;4.22;;
37407;SDS011;24866;50.248;8.252;2023-06-19T08:32:57;6.50;;;4.60;;
37407;SDS011;24866;50.248;8.252;2023-06-19T08:35:26;6.57;;;4.85;;
37407;SDS011;24866;50.248;8.252;2023-06-19T08:37:56;6.55;;;3.85;;
37407;SDS011;24866;50.248;8.252;2023-06-19T08:40:28;7.20;;;4.90;;
37407;SDS011;24866;50.248;8.252;2023-06-19T08:42:57;6.65;;;4.82;;
37407;SDS011;24866;50.248;8.252;2023-06-19T08:45:27;4.55;;;4.10;;
37407;SDS011;24866;50.248;8.252;2023-06-19T08:47:58;5.10;;;4.40;;
37407;SDS011;24866;50.248;8.252;2023-06-19T08:50:28;5.22;;;4.45;;
37407;SDS011;24866;50.248;8.252;2023-06-19T08:52:58;5.47;;;4.15;;
37407;SDS011;24866;50.248;8.252;2023-06-19T08:55:30;6.63;;;3.78;;
37407;SDS011;24866;50.248;8.252;2023-06-19T08:57:59;7.63;;;4.70;;
37407;SDS011;24866;50.248;8.252;2023-06-19T09:00:29;6.70;;;4.35;;
37407;SDS011;24866;50.248;8.252;2023-06-19T09:02:59;5.90;;;4.35;;
37407;SDS011;24866;50.248;8.252;2023-06-19T09:08:01;6.80;;;4.95;;
37407;SDS011;24866;50.248;8.252;2023-06-19T09:13:04;7.22;;;4.82;;
37407;SDS011;24866;50.248;8.252;2023-06-19T09:15:35;6.28;;;4.22;;
37407;SDS011;24866;50.248;8.252;2023-06-19T09:18:06;5.32;;;4.00;;
37407;SDS011;24866;50.248;8.252;2023-06-19T09:20:38;8.13;;;4.55;;
37407;SDS011;24866;50.248;8.252;2023-06-19T09:23:11;6.50;;;4.53;;
37407;SDS011;24866;50.248;8.252;2023-06-19T09:25:47;6.20;;;3.72;;
37407;SDS011;24866;50.248;8.252;2023-06-19T09:28:18;5.03;;;4.50;;
37407;SDS011;24866;50.248;8.252;2023-06-19T09:30:56;6.30;;;4.20;;
37407;SDS011;24866;50.248;8.252;2023-06-19T09:33:28;5.70;;;4.32;;
37407;SDS011;24866;50.248;8.252;2023-06-19T09:35:59;4.53;;;3.72;;
37407;SDS011;24866;50.248;8.252;2023-06-19T09:38:31;5.72;;;4.30;;
37407;SDS011;24866;50.248;8.252;2023-06-19T09:41:04;4.68;;;3.88;;
37407;SDS011;24866;50.248;8.252;2023-06-19T09:43:35;4.47;;;3.13;;
37407;SDS011;24866;50.248;8.252;2023-06-19T09:46:06;5.13;;;3.78;;
37407;SDS011;24866;50.248;8.252;2023-06-19T09:48:41;7.32;;;4.28;;
37407;SDS011;24866;50.248;8.252;2023-06-19T09:51:12;4.63;;;3.90;;
37407;SDS011;24866;50.248;8.252;2023-06-19T09:53:48;4.47;;;3.85;;
37407;SDS011;24866;50.248;8.252;2023-06-19T09:56:20;4.25;;;3.42;;
37407;SDS011;24866;50.248;8.252;2023-06-19T09:58:53;5.60;;;4.18;;
37407;SDS011;24866;50.248;8.252;2023-06-19T10:01:26;6.10;;;3.88;;
37407;SDS011;24866;50.248;8.252;2023-06-19T10:04:04;6.53;;;4.20;;
37407;SDS011;24866;50.248;8.252;2023-06-19T10:06:42;4.70;;;3.85;;
37407;SDS011;24866;50.248;8.252;2023-06-19T10:09:14;5.95;;;3.63;;
37407;SDS011;24866;50.248;8.252;2023-06-19T10:11:48;6.82;;;3.70;;
37407;SDS011;24866;50.248;8.252;2023-06-19T10:14:20;6.07;;;3.78;;
37407;SDS011;24866;50.248;8.252;2023-06-19T10:16:51;6.97;;;4.60;;
37407;SDS011;24866;50.248;8.252;2023-06-19T10:19:21;5.82;;;4.10;;
37407;SDS011;24866;50.248;8.252;2023-06-19T10:21:52;6.28;;;4.18;;
37407;SDS011;24866;50.248;8.252;2023-06-19T10:24:23;7.60;;;4.82;;
37407;SDS011;24866;50.248;8.252;2023-06-19T10:26:56;5.50;;;4.47;;
37407;SDS011;24866;50.248;8.252;2023-06-19T10:29:37;5.57;;;4.05;;
37407;SDS011;24866;50.248;8.252;2023-06-19T10:32:07;5.10;;;4.13;;
37407;SDS011;24866;50.248;8.252;2023-06-19T10:34:37;4.13;;;3.63;;
37407;SDS011;24866;50.248;8.252;2023-06-19T10:37:07;5.78;;;3.92;;
37407;SDS011;24866;50.248;8.252;2023-06-19T10:39:37;4.28;;;3.67;;
37407;SDS011;24866;50.248;8.252;2023-06-19T10:42:09;5.18;;;4.30;;
37407;SDS011;24866;50.248;8.252;2023-06-19T10:44:39;5.05;;;3.70;;
37407;SDS011;24866;50.248;8.252;2023-06-19T10:47:10;7.15;;;3.65;;
37407;SDS011;24866;50.248;8.252;2023-06-19T10:49:40;5.10;;;4.05;;
37407;SDS011;24866;50.248;8.252;2023-06-19T10:52:11;4.75;;;3.35;;
37407;SDS011;24866;50.248;8.252;2023-06-19T10:54:40;5.25;;;3.38;;
37407;SDS011;24866;50.248;8.252;2023-06-19T10:57:12;5.88;;;4.47;;
37407;SDS011;24866;50.248;8.252;2023-06-19T10:59:42;3.97;;;3.38;;
37407;SDS011;24866;50.248;8.252;2023-06-19T11:02:12;6.32;;;3.53;;
37407;SDS011;24866;50.248;8.252;2023-06-19T11:04:41;4.40;;;3.45;;
37407;SDS011;24866;50.248;8.252;2023-06-19T11:07:12;4.82;;;4.07;;
37407;SDS011;24866;50.248;8.252;2023-06-19T11:09:41;4.38;;;3.40;;
37407;SDS011;24866;50.248;8.252;2023-06-19T11:12:18;4.60;;;3.47;;
37407;SDS011;24866;50.248;8.252;2023-06-19T11:14:48;5.68;;;3.75;;
37407;SDS011;24866;50.248;8.252;2023-06-19T11:17:18;5.63;;;3.60;;
37407;SDS011;24866;50.248;8.252;2023-06-19T11:19:49;6.50;;;3.78;;
37407;SDS011;24866;50.248;8.252;2023-06-19T11:22:19;5.45;;;4.05;;
37407;SDS011;24866;50.248;8.252;2023-06-19T11:24:50;3.67;;;3.05;;
37407;SDS011;24866;50.248;8.252;2023-06-19T11:27:23;4.70;;;3.30;;
37407;SDS011;24866;50.248;8.252;2023-06-19T11:29:55;4.13;;;3.42;;
37407;SDS011;24866;50.248;8.252;2023-06-19T11:32:30;5.90;;;3.65;;
37407;SDS011;24866;50.248;8.252;2023-06-19T11:35:04;4.32;;;3.30;;
37407;SDS011;24866;50.248;8.252;2023-06-19T11:37:36;5.78;;;4.15;;
37407;SDS011;24866;50.248;8.252;2023-06-19T11:40:09;6.82;;;3.92;;
37407;SDS011;24866;50.248;8.252;2023-06-19T11:42:47;6.20;;;3.80;;
37407;SDS011;24866;50.248;8.252;2023-06-19T11:45:18;5.47;;;3.45;;
37407;SDS011;24866;50.248;8.252;2023-06-19T11:47:49;5.97;;;4.00;;
37407;SDS011;24866;50.248;8.252;2023-06-19T11:50:19;6.32;;;3.45;;
37407;SDS011;24866;50.248;8.252;2023-06-19T11:52:55;7.10;;;3.53;;
37407;SDS011;24866;50.248;8.252;2023-06-19T11:57:59;5.38;;;3.65;;
37407;SDS011;24866;50.248;8.252;2023-06-19T12:00:28;5.30;;;4.65;;
37407;SDS011;24866;50.248;8.252;2023-06-19T12:02:58;5.30;;;3.33;;
37407;SDS011;24866;50.248;8.252;2023-06-19T12:05:28;6.40;;;3.70;;
37407;SDS011;24866;50.248;8.252;2023-06-19T12:07:58;5.85;;;3.83;;
37407;SDS011;24866;50.248;8.252;2023-06-19T12:10:30;5.50;;;3.40;;
37407;SDS011;24866;50.248;8.252;2023-06-19T12:13:01;5.95;;;4.10;;
37407;SDS011;24866;50.248;8.252;2023-06-19T12:15:31;5.45;;;3.40;;
37407;SDS011;24866;50.248;8.252;2023-06-19T12:18:01;4.05;;;3.30;;
37407;SDS011;24866;50.248;8.252;2023-06-19T12:20:32;7.55;;;3.80;;
37407;SDS011;24866;50.248;8.252;2023-06-19T12:23:02;4.82;;;3.35;;
37407;SDS011;24866;50.248;8.252;2023-06-19T12:25:32;8.75;;;4.00;;
37407;SDS011;24866;50.248;8.252;2023-06-19T12:28:03;5.68;;;4.68;;
37407;SDS011;24866;50.248;8.252;2023-06-19T12:30:36;8.07;;;4.18;;
37407;SDS011;24866;50.248;8.252;2023-06-19T12:33:06;5.32;;;4.53;;
37407;SDS011;24866;50.248;8.252;2023-06-19T12:35:37;5.13;;;4.28;;
37407;SDS011;24866;50.248;8.252;2023-06-19T12:38:09;4.25;;;3.58;;
37407;SDS011;24866;50.248;8.252;2023-06-19T12:40:39;7.80;;;4.28;;
37407;SDS011;24866;50.248;8.252;2023-06-19T12:43:11;4.40;;;3.72;;
37407;SDS011;24866;50.248;8.252;2023-06-19T12:45:41;6.07;;;3.45;;
37407;SDS011;24866;50.248;8.252;2023-06-19T12:48:10;4.88;;;3.60;;
37407;SDS011;24866;50.248;8.252;2023-06-19T12:50:40;5.78;;;3.70;;
37407;SDS011;24866;50.248;8.252;2023-06-19T12:53:10;4.47;;;3.30;;
37407;SDS011;24866;50.248;8.252;2023-06-19T12:55:40;5.22;;;3.83;;
37407;SDS011;24866;50.248;8.252;2023-06-19T12:58:14;4.72;;;3.60;;
37407;SDS011;24866;50.248;8.252;2023-06-19T13:00:44;6.80;;;3.88;;
37407;SDS011;24866;50.248;8.252;2023-06-19T13:03:13;4.70;;;3.97;;
37407;SDS011;24866;50.248;8.252;2023-06-19T13:05:43;5.13;;;3.88;;
37407;SDS011;24866;50.248;8.252;2023-06-19T13:08:13;6.13;;;3.97;;
37407;SDS011;24866;50.248;8.252;2023-06-19T13:10:44;4.40;;;3.45;;
37407;SDS011;24866;50.248;8.252;2023-06-19T13:13:16;3.80;;;3.28;;
37407;SDS011;24866;50.248;8.252;2023-06-19T13:18:17;6.60;;;3.55;;
37407;SDS011;24866;50.248;8.252;2023-06-19T13:20:47;4.80;;;4.20;;
37407;SDS011;24866;50.248;8.252;2023-06-19T13:23:17;4.88;;;3.58;;
37407;SDS011;24866;50.248;8.252;2023-06-19T13:25:47;4.55;;;3.60;;
37407;SDS011;24866;50.248;8.252;2023-06-19T13:28:19;4.60;;;3.13;;
37407;SDS011;24866;50.248;8.252;2023-06-19T13:30:49;4.85;;;3.45;;
37407;SDS011;24866;50.248;8.252;2023-06-19T13:33:19;4.47;;;3.67;;
37407;SDS011;24866;50.248;8.252;2023-06-19T13:35:49;4.45;;;3.42;;
37407;SDS011;24866;50.248;8.252;2023-06-19T13:38:18;5.63;;;3.72;;
37407;SDS011;24866;50.248;8.252;2023-06-19T13:40:49;4.55;;;3.70;;
37407;SDS011;24866;50.248;8.252;2023-06-19T13:43:20;8.00;;;4.60;;
37407;SDS011;24866;50.248;8.252;2023-06-19T13:45:51;5.00;;;3.38;;
37407;SDS011;24866;50.248;8.252;2023-06-19T13:48:21;6.75;;;4.32;;
37407;SDS011;24866;50.248;8.252;2023-06-19T13:50:51;5.60;;;3.55;;
37407;SDS011;24866;50.248;8.252;2023-06-19T13:53:21;5.55;;;3.58;;
37407;SDS011;24866;50.248;8.252;2023-06-19T13:55:51;5.70;;;3.88;;
37407;SDS011;24866;50.248;8.252;2023-06-19T13:58:23;4.45;;;3.95;;
37407;SDS011;24866;50.248;8.252;2023-06-19T14:03:24;4.53;;;3.35;;
37407;SDS011;24866;50.248;8.252;2023-06-19T14:05:54;5.13;;;3.67;;
37407;SDS011;24866;50.248;8.252;2023-06-19T14:08:24;6.95;;;3.70;;
37407;SDS011;24866;50.248;8.252;2023-06-19T14:10:54;4.05;;;3.30;;
37407;SDS011;24866;50.248;8.252;2023-06-19T14:13:26;5.00;;;3.63;;
37407;SDS011;24866;50.248;8.252;2023-06-19T14:15:57;4.63;;;3.53;;
37407;SDS011;24866;50.248;8.252;2023-06-19T14:18:26;4.57;;;3.08;;
37407;SDS011;24866;50.248;8.252;2023-06-19T14:20:56;5.55;;;3.50;;
37407;SDS011;24866;50.248;8.252;2023-06-19T14:23:26;5.65;;;3.33;;
37407;SDS011;24866;50.248;8.252;2023-06-19T14:25:56;4.70;;;3.55;;
37407;SDS011;24866;50.248;8.252;2023-06-19T14:28:28;5.78;;;3.72;;
37407;SDS011;24866;50.248;8.252;2023-06-19T14:30:58;4.55;;;3.80;;
37407;SDS011;24866;50.248;8.252;2023-06-19T14:33:27;4.05;;;3.10;;
37407;SDS011;24866;50.248;8.252;2023-06-19T14:35:58;8.07;;;3.88;;
37407;SDS011;24866;50.248;8.252;2023-06-19T14:38:28;6.18;;;3.45;;
37407;SDS011;24866;50.248;8.252;2023-06-19T14:41:01;5.72;;;3.10;;
37407;SDS011;24866;50.248;8.252;2023-06-19T14:43:33;4.38;;;3.15;;
37407;SDS011;24866;50.248;8.252;2023-06-19T14:46:03;4.93;;;3.55;;
37407;SDS011;24866;50.248;8.252;2023-06-19T14:48:33;5.07;;;3.30;;
37407;SDS011;24866;50.248;8.252;2023-06-19T14:51:03;4.43;;;3.13;;
37407;SDS011;24866;50.248;8.252;2023-06-19T14:53:33;7.63;;;3.50;;
37407;SDS011;24866;50.248;8.252;2023-06-19T14:56:03;6.93;;;3.58;;
37407;SDS011;24866;50.248;8.252;2023-06-19T14:58:34;7.85;;;3.80;;
37407;SDS011;24866;50.248;8.252;2023-06-19T15:01:05;5.68;;;3.28;;
37407;SDS011;24866;50.248;8.252;2023-06-19T15:03:35;7.30;;;3.22;;
37407;SDS011;24866;50.248;8.252;2023-06-19T15:06:05;5.32;;;2.88;;
37407;SDS011;24866;50.248;8.252;2023-06-19T15:08:35;4.82;;;3.10;;
37407;SDS011;24866;50.248;8.252;2023-06-19T15:11:06;4.32;;;3.10;;
37407;SDS011;24866;50.248;8.252;2023-06-19T15:13:38;6.70;;;3.40;;